Time;durP1;ratioP1;P1;durP2;ratioP2;P2;SDS_P1;SDS_P2;PMS_P1;PMS_P2;Temp;Humidity;BMP_temperature;BMP_pressure;BME280_temperature;BME280_humidity;BME280_pressure;Samples;Min_cycle;Max_cycle;Signal;HPM_P1;HPM_P2
2023/06/13 04:01:24;;;;;;;8.23;4.10;;;16.90;81.20;;;;;;5500294;23;20054;-71
2023/06/13 04:03:50;;;;;;;7.25;3.60;;;16.90;81.30;;;;;;4958140;28;20420;-72
2023/06/13 04:06:15;;;;;;;5.63;4.03;;;16.90;81.50;;;;;;4958026;28;20034;-72
2023/06/13 04:08:41;;;;;;;6.53;4.07;;;16.90;81.70;;;;;;4960086;28;20031;-72
2023/06/13 04:11:07;;;;;;;6.23;3.73;;;16.90;82.60;;;;;;4959096;28;20034;-71
2023/06/13 04:13:32;;;;;;;5.70;3.60;;;16.80;82.20;;;;;;4976361;28;20258;-68
2023/06/13 04:15:58;;;;;;;5.73;4.20;;;16.80;82.30;;;;;;4958355;28;20121;-68
2023/06/13 04:18:24;;;;;;;5.70;3.70;;;16.80;82.30;;;;;;4975387;28;20806;-67
2023/06/13 04:20:53;;;;;;;4.78;3.40;;;16.80;82.60;;;;;;4975650;28;20431;-68
2023/06/13 04:23:19;;;;;;;5.13;3.38;;;16.80;82.80;;;;;;4958201;28;20159;-67
2023/06/13 04:25:44;;;;;;;9.38;3.83;;;16.80;82.70;;;;;;4975659;28;20062;-67
2023/06/13 04:28:13;;;;;;;8.90;4.20;;;16.80;82.80;;;;;;4958806;28;20159;-68
2023/06/13 04:30:40;;;;;;;9.05;4.47;;;16.80;82.90;;;;;;4958597;28;20035;-67
2023/06/13 04:33:13;;;;;;;8.00;3.90;;;16.80;83.00;;;;;;4957887;28;20027;-68
2023/06/13 04:35:44;;;;;;;5.57;3.70;;;16.80;82.90;;;;;;4966868;28;20034;-70
2023/06/13 04:38:14;;;;;;;6.65;3.97;;;16.80;82.80;;;;;;4941574;28;20020;-68
2023/06/13 04:40:40;;;;;;;6.40;3.63;;;16.90;83.50;;;;;;4938943;29;20035;-71
2023/06/13 04:43:06;;;;;;;6.72;3.53;;;16.90;83.10;;;;;;4939129;29;20023;-68
2023/06/13 04:45:33;;;;;;;11.15;3.72;;;16.90;83.20;;;;;;4968076;28;20118;-68
2023/06/13 04:48:01;;;;;;;8.77;3.60;;;16.90;83.20;;;;;;4975770;28;20038;-68
2023/06/13 04:50:28;;;;;;;8.80;3.90;;;16.90;83.40;;;;;;4975226;28;20077;-69
2023/06/13 04:52:57;;;;;;;7.05;3.95;;;17.00;83.30;;;;;;4975243;28;20027;-67
2023/06/13 04:55:25;;;;;;;4.30;3.63;;;17.00;83.30;;;;;;4957802;28;20023;-68
2023/06/13 04:57:51;;;;;;;6.00;4.43;;;17.00;83.20;;;;;;4975159;28;20106;-69
2023/06/13 05:00:18;;;;;;;8.38;3.75;;;17.10;83.10;;;;;;4957466;28;20459;-68
2023/06/13 05:02:45;;;;;;;6.70;3.63;;;17.00;83.40;;;;;;4958545;28;20043;-71
2023/06/13 05:05:11;;;;;;;11.40;4.10;;;17.10;83.40;;;;;;4957282;28;20399;-70
2023/06/13 05:07:39;;;;;;;3.92;3.38;;;17.20;83.50;;;;;;4974931;28;20027;-69
2023/06/13 05:10:05;;;;;;;11.10;4.05;;;17.20;83.50;;;;;;4974823;28;20030;-69
2023/06/13 05:12:30;;;;;;;4.88;3.70;;;17.20;83.40;;;;;;4974639;28;20368;-69
2023/06/13 05:14:56;;;;;;;6.75;3.63;;;17.30;83.20;;;;;;4975055;28;20047;-70
2023/06/13 05:17:22;;;;;;;6.72;3.88;;;17.40;83.20;;;;;;4974925;28;20026;-71
2023/06/13 05:19:48;;;;;;;9.55;3.83;;;17.40;83.30;;;;;;4977965;28;20030;-70
2023/06/13 05:22:15;;;;;;;6.32;3.78;;;17.50;83.30;;;;;;4979123;28;20023;-70
2023/06/13 05:24:41;;;;;;;6.90;3.47;;;17.60;82.90;;;;;;4976629;28;20022;-68
2023/06/13 05:27:07;;;;;;;6.43;3.97;;;17.70;82.80;;;;;;4959956;28;20142;-69
2023/06/13 05:29:33;;;;;;;5.72;3.92;;;17.70;82.70;;;;;;4977891;28;20083;-69
2023/06/13 05:31:59;;;;;;;6.50;3.47;;;17.80;82.50;;;;;;4959828;28;20391;-70
2023/06/13 05:34:25;;;;;;;6.35;3.50;;;17.80;82.30;;;;;;4960112;28;20031;-69
2023/06/13 05:36:52;;;;;;;9.38;4.00;;;17.90;81.80;;;;;;4959906;28;20078;-69
2023/06/13 05:39:18;;;;;;;;;;;18.00;82.30;;;;;;4977485;28;20048;-70
2023/06/13 05:41:43;;;;;;;7.30;2.97;;;18.10;81.40;;;;;;4959083;28;19906;-69
2023/06/13 05:44:09;;;;;;;5.57;3.17;;;18.20;81.10;;;;;;4959193;28;20031;-69
2023/06/13 05:46:34;;;;;;;4.70;3.30;;;18.40;80.50;;;;;;4959562;28;20031;-70
2023/06/13 05:49:00;;;;;;;6.78;3.42;;;18.50;79.70;;;;;;4959097;28;20069;-69
2023/06/13 05:51:26;;;;;;;5.00;3.13;;;18.60;78.90;;;;;;4976702;28;20045;-68
2023/06/13 05:53:51;;;;;;;6.80;3.03;;;18.70;78.90;;;;;;4981606;28;20031;-69
2023/06/13 05:56:17;;;;;;;4.55;3.17;;;18.70;78.70;;;;;;4979570;28;20062;-70
2023/06/13 05:58:44;;;;;;;4.57;3.08;;;18.80;78.90;;;;;;4979694;28;20027;-69
2023/06/13 06:01:13;;;;;;;4.88;3.00;;;18.80;78.20;;;;;;4961145;28;20035;-70
2023/06/13 06:03:38;;;;;;;4.68;2.97;;;18.90;77.50;;;;;;4977811;28;20451;-70
2023/06/13 06:06:04;;;;;;;6.60;3.38;;;19.00;77.30;;;;;;4977692;28;20027;-69
2023/06/13 06:08:30;;;;;;;7.18;3.53;;;19.10;76.90;;;;;;4977092;28;20031;-71
2023/06/13 06:10:56;;;;;;;5.60;2.97;;;19.30;76.70;;;;;;4958085;28;20050;-70
2023/06/13 06:13:22;;;;;;;7.13;3.25;;;19.30;76.70;;;;;;4941369;29;20424;-70
2023/06/13 06:15:47;;;;;;;4.93;2.75;;;19.40;75.70;;;;;;4971513;28;20035;-70
2023/06/13 06:18:13;;;;;;;7.57;3.30;;;19.40;75.40;;;;;;4976214;28;20031;-70
2023/06/13 06:20:38;;;;;;;10.57;3.33;;;19.50;75.50;;;;;;4975178;28;20027;-69
2023/06/13 06:23:04;;;;;;;6.85;3.20;;;19.50;75.30;;;;;;4961690;28;20035;-65
2023/06/13 06:25:30;;;;;;;7.40;3.03;;;19.60;75.00;;;;;;4974276;28;20037;-68
2023/06/13 06:27:56;;;;;;;7.53;2.90;;;19.60;74.10;;;;;;4973893;28;20094;-68
2023/06/13 06:30:21;;;;;;;4.88;3.20;;;19.70;74.20;;;;;;4976322;28;20062;-68
2023/06/13 06:32:47;;;;;;;4.63;2.75;;;19.70;73.40;;;;;;4978065;28;20027;-68
2023/06/13 06:35:16;;;;;;;8.38;3.30;;;19.80;73.70;;;;;;4977486;28;20345;-68
2023/06/13 06:37:43;;;;;;;8.98;3.22;;;19.90;73.00;;;;;;4977901;28;20443;-69
2023/06/13 06:40:09;;;;;;;5.05;2.63;;;20.00;72.40;;;;;;4977456;28;20102;-67
2023/06/13 06:42:35;;;;;;;7.38;3.03;;;20.00;70.80;;;;;;4977539;28;20078;-68
2023/06/13 06:45:00;;;;;;;4.55;2.97;;;20.10;72.40;;;;;;4977625;28;20023;-68
2023/06/13 06:47:26;;;;;;;5.70;2.88;;;20.10;73.00;;;;;;4977415;28;20088;-67
2023/06/13 06:49:51;;;;;;;4.15;2.72;;;20.20;72.30;;;;;;4977364;28;20034;-66
2023/06/13 06:52:17;;;;;;;3.88;3.05;;;20.30;71.80;;;;;;4977338;28;20031;-68
2023/06/13 06:54:42;;;;;;;4.68;2.67;;;20.30;71.30;;;;;;4977497;28;20018;-69
2023/06/13 06:57:08;;;;;;;7.18;3.00;;;20.40;67.10;;;;;;4959957;28;20035;-67
2023/06/13 06:59:34;;;;;;;4.35;2.83;;;20.40;68.60;;;;;;4977226;28;20031;-68
2023/06/13 07:01:59;;;;;;;4.22;2.40;;;20.50;68.80;;;;;;4977157;28;20050;-67
2023/06/13 07:04:25;;;;;;;5.95;3.20;;;20.50;67.00;;;;;;4959334;28;20031;-66
2023/06/13 07:06:51;;;;;;;5.55;2.50;;;20.50;67.70;;;;;;4977398;28;20082;-67
2023/06/13 07:09:16;;;;;;;4.88;2.45;;;20.60;66.30;;;;;;4976902;28;20027;-68
2023/06/13 07:11:42;;;;;;;3.70;2.42;;;20.70;63.40;;;;;;4977295;28;20396;-67
2023/06/13 07:14:08;;;;;;;4.80;2.70;;;20.70;63.90;;;;;;4976564;28;20480;-67
2023/06/13 07:16:33;;;;;;;12.20;2.95;;;20.80;62.70;;;;;;4976317;28;20031;-67
2023/06/13 07:18:59;;;;;;;4.78;2.90;;;20.80;62.80;;;;;;4976177;28;20043;-68
2023/06/13 07:21:24;;;;;;;6.47;2.95;;;21.00;62.60;;;;;;4976659;28;20027;-68
2023/06/13 07:23:50;;;;;;;3.25;2.42;;;21.10;62.00;;;;;;4976764;28;20466;-68
2023/06/13 07:26:15;;;;;;;4.80;2.70;;;21.20;62.00;;;;;;4976221;28;20031;-67
2023/06/13 07:28:41;;;;;;;4.18;2.88;;;21.30;61.60;;;;;;4976666;28;20042;-67
2023/06/13 07:31:07;;;;;;;3.60;2.65;;;21.40;61.70;;;;;;4976372;28;20110;-68
2023/06/13 07:33:32;;;;;;;4.10;2.47;;;21.60;61.30;;;;;;4976081;28;20492;-67
2023/06/13 07:35:58;;;;;;;6.85;2.60;;;21.60;61.40;;;;;;4976178;28;20408;-67
2023/06/13 07:38:26;;;;;;;6.63;2.90;;;21.60;60.40;;;;;;4976624;28;20025;-67
2023/06/13 07:40:52;;;;;;;5.75;2.80;;;21.70;60.10;;;;;;4976190;28;20112;-68
2023/06/13 07:43:18;;;;;;;5.38;2.60;;;21.90;60.80;;;;;;4976242;28;20058;-67
2023/06/13 07:45:46;;;;;;;3.78;2.60;;;22.40;59.70;;;;;;4976374;28;20031;-66
2023/06/13 07:48:11;;;;;;;4.78;2.50;;;23.60;58.40;;;;;;4976058;28;20018;-67
2023/06/13 07:50:37;;;;;;;;;;;25.20;55.30;;;;;;4975935;28;20038;-67
2023/06/13 07:53:03;;;;;;;5.57;2.80;;;25.50;54.20;;;;;;4976021;28;19906;-68
2023/06/13 07:55:28;;;;;;;;;;;24.90;54.50;;;;;;4976798;28;20027;-68
2023/06/13 07:57:54;;;;;;;7.45;2.75;;;24.30;55.80;;;;;;4976304;28;19910;-67
2023/06/13 08:00:19;;;;;;;;;;;23.70;56.40;;;;;;4976343;28;20018;-69
2023/06/13 08:02:46;;;;;;;5.45;2.80;;;23.30;56.90;;;;;;4976142;28;20304;-68
2023/06/13 08:05:13;;;;;;;3.95;2.60;;;23.20;57.40;;;;;;4975432;28;20033;-67
2023/06/13 08:07:39;;;;;;;7.05;2.67;;;23.40;57.50;;;;;;4976402;28;20035;-67
2023/06/13 08:10:05;;;;;;;;;;;24.70;55.90;;;;;;4976237;28;20045;-68
2023/06/13 08:12:30;;;;;;;4.40;2.60;;;26.30;54.20;;;;;;4976120;28;20355;-68
2023/06/13 08:14:56;;;;;;;3.72;2.58;;;27.80;52.90;;;;;;4975686;28;20521;-72
2023/06/13 08:17:24;;;;;;;4.30;2.65;;;29.20;51.70;;;;;;4975814;28;20035;-68
2023/06/13 08:19:50;;;;;;;4.53;2.63;;;30.30;50.90;;;;;;4975080;28;20476;-68
2023/06/13 08:22:16;;;;;;;4.18;2.60;;;31.70;50.20;;;;;;4975251;28;20030;-66
2023/06/13 08:24:42;;;;;;;5.05;2.60;;;32.30;48.30;;;;;;4974948;28;20023;-67
2023/06/13 08:27:07;;;;;;;5.03;2.63;;;32.70;48.20;;;;;;4975555;28;20022;-69
2023/06/13 08:29:34;;;;;;;5.65;2.40;;;33.00;47.70;;;;;;4976541;28;20034;-68
2023/06/13 08:31:59;;;;;;;3.90;2.30;;;31.90;47.70;;;;;;4958256;28;20428;-69
2023/06/13 08:34:26;;;;;;;4.80;2.45;;;31.00;48.60;;;;;;4976465;28;20117;-68
2023/06/13 08:36:52;;;;;;;3.70;2.78;;;31.40;48.50;;;;;;4958986;28;20396;-68
2023/06/13 08:39:17;;;;;;;7.93;2.80;;;32.30;48.20;;;;;;4975250;28;20023;-68
2023/06/13 08:41:44;;;;;;;5.13;2.53;;;32.30;47.20;;;;;;4975208;28;20101;-67
2023/06/13 08:44:10;;;;;;;10.23;3.13;;;32.00;47.40;;;;;;4975532;28;20046;-69
2023/06/13 08:46:36;;;;;;;5.68;3.00;;;31.70;47.30;;;;;;4975475;28;20483;-67
2023/06/13 08:49:03;;;;;;;10.30;3.03;;;31.40;48.10;;;;;;4974674;28;20035;-68
2023/06/13 08:51:32;;;;;;;7.57;2.85;;;32.80;48.00;;;;;;4974547;28;20085;-68
2023/06/13 08:54:00;;;;;;;5.68;2.70;;;33.80;46.70;;;;;;4974828;28;20443;-68
2023/06/13 08:56:28;;;;;;;5.47;2.70;;;34.20;46.20;;;;;;4957314;28;20089;-68
2023/06/13 08:59:07;;;;;;;9.02;2.80;;;34.00;45.90;;;;;;4974692;28;20022;-68
2023/06/13 09:01:34;;;;;;;4.65;3.10;;;33.90;45.60;;;;;;4974688;28;20034;-68
2023/06/13 09:04:00;;;;;;;6.35;2.90;;;33.20;46.00;;;;;;4956957;28;20023;-68
2023/06/13 09:06:27;;;;;;;4.38;2.80;;;33.60;46.40;;;;;;4974940;28;20027;-67
2023/06/13 09:08:54;;;;;;;7.85;3.05;;;34.20;46.20;;;;;;4974498;28;20105;-68
2023/06/13 09:11:20;;;;;;;4.50;2.75;;;35.20;46.00;;;;;;4974339;28;20074;-67
2023/06/13 09:13:47;;;;;;;4.88;2.70;;;35.30;45.70;;;;;;4974378;28;20019;-67
2023/06/13 09:16:13;;;;;;;9.60;3.08;;;34.10;45.80;;;;;;4974265;28;20078;-68
2023/06/13 09:18:42;;;;;;;7.28;3.17;;;33.70;46.50;;;;;;4957163;28;20062;-68
2023/06/13 09:21:11;;;;;;;3.83;2.90;;;33.90;46.60;;;;;;4957769;28;20027;-68
2023/06/13 09:23:38;;;;;;;4.93;3.15;;;32.60;46.40;;;;;;4975407;28;20019;-68
2023/06/13 09:26:05;;;;;;;7.68;2.90;;;33.10;47.00;;;;;;4976504;28;20033;-67
2023/06/13 09:28:36;;;;;;;4.05;2.90;;;33.30;46.30;;;;;;4976293;28;20053;-67
2023/06/13 09:31:01;;;;;;;4.15;3.00;;;33.50;46.40;;;;;;4975195;28;20026;-69
2023/06/13 09:33:27;;;;;;;5.93;2.80;;;33.40;46.70;;;;;;4975039;28;20023;-68
2023/06/13 09:35:53;;;;;;;5.38;2.90;;;32.70;46.60;;;;;;4956664;28;20030;-68
2023/06/13 09:38:23;;;;;;;6.25;2.70;;;32.80;46.90;;;;;;4974395;28;20119;-67
2023/06/13 09:40:50;;;;;;;5.72;2.90;;;32.00;47.30;;;;;;4974253;28;20113;-67
2023/06/13 09:43:16;;;;;;;6.32;2.90;;;32.50;47.80;;;;;;4974227;28;20030;-68
2023/06/13 09:45:47;;;;;;;3.13;2.72;;;33.10;46.20;;;;;;4974464;28;20035;-67
2023/06/13 09:48:13;;;;;;;5.22;2.60;;;32.70;46.60;;;;;;4956881;28;20501;-67
2023/06/13 09:50:40;;;;;;;5.18;2.65;;;33.00;46.70;;;;;;4956309;28;20077;-67
2023/06/13 09:53:09;;;;;;;11.40;3.10;;;32.90;46.00;;;;;;4974013;28;20487;-67
2023/06/13 09:55:37;;;;;;;3.97;2.65;;;32.90;46.40;;;;;;4974246;28;20139;-69
2023/06/13 09:58:03;;;;;;;5.82;2.90;;;33.70;46.20;;;;;;4974726;28;20081;-68
2023/06/13 10:00:29;;;;;;;6.72;3.05;;;34.40;45.70;;;;;;4974393;28;20031;-68
2023/06/13 10:02:56;;;;;;;4.05;2.67;;;34.10;45.90;;;;;;4976205;28;20058;-67
2023/06/13 10:05:22;;;;;;;7.97;2.90;;;33.80;46.20;;;;;;4960562;28;20031;-69
2023/06/13 10:07:48;;;;;;;6.85;3.13;;;33.20;46.50;;;;;;4978506;28;20042;-69
2023/06/13 10:10:14;;;;;;;6.38;3.10;;;32.60;47.20;;;;;;4977809;28;20031;-67
2023/06/13 10:12:55;;;;;;;5.45;3.10;;;33.10;47.50;;;;;;4978337;28;20045;-69
2023/06/13 10:15:39;;;;;;;5.65;2.90;;;34.10;46.40;;;;;;4999429;23;20034;-67
2023/06/13 10:18:11;;;;;;;5.78;2.97;;;33.90;46.30;;;;;;4977692;28;20461;-67
2023/06/13 10:20:39;;;;;;;6.53;3.15;;;33.80;46.50;;;;;;4977582;28;20029;-67
2023/06/13 10:23:06;;;;;;;4.30;2.67;;;33.60;46.70;;;;;;4977624;28;20028;-66
2023/06/13 10:25:33;;;;;;;6.47;2.58;;;34.00;46.00;;;;;;4977600;28;20035;-66
2023/06/13 10:28:08;;;;;;;10.52;5.50;;;34.10;45.80;;;;;;4977828;28;20034;-67
2023/06/13 10:30:58;;;;;;;4.55;2.75;;;33.80;45.30;;;;;;4977297;28;20114;-67
2023/06/13 10:33:42;;;;;;;4.35;3.10;;;33.40;45.70;;;;;;4977542;28;20023;-67
2023/06/13 10:36:08;;;;;;;7.28;2.90;;;33.30;46.20;;;;;;4959851;28;20121;-67
2023/06/13 10:39:09;;;;;;;6.95;3.00;;;33.10;45.70;;;;;;4977269;28;20487;-66
2023/06/13 10:41:53;;;;;;;4.10;2.80;;;32.70;46.20;;;;;;4959887;28;20113;-66
2023/06/13 10:44:30;;;;;;;9.60;2.85;;;32.30;46.10;;;;;;4977125;28;20030;-67
2023/06/13 10:46:56;;;;;;;3.53;2.88;;;32.10;45.90;;;;;;4959800;28;20058;-68
2023/06/13 10:49:22;;;;;;;5.97;3.33;;;32.70;45.50;;;;;;4977200;28;20023;-67
2023/06/13 10:51:47;;;;;;;4.95;2.72;;;31.90;45.80;;;;;;4977178;28;20030;-67
2023/06/13 10:54:14;;;;;;;6.65;3.00;;;32.40;46.40;;;;;;4977070;28;20035;-67
2023/06/13 10:56:43;;;;;;;6.53;3.30;;;32.60;46.20;;;;;;4977060;28;20029;-67
2023/06/13 10:59:11;;;;;;;4.78;3.28;;;33.50;46.10;;;;;;4976894;28;20022;-67
2023/06/13 11:01:41;;;;;;;6.32;3.20;;;34.00;45.90;;;;;;4977408;28;20392;-67
2023/06/13 11:04:12;;;;;;;4.88;2.63;;;34.40;45.20;;;;;;4977048;28;20046;-67
2023/06/13 11:06:40;;;;;;;3.15;2.78;;;34.10;44.80;;;;;;4959675;28;20047;-67
2023/06/13 11:09:15;;;;;;;9.20;3.90;;;33.30;45.40;;;;;;4959827;28;20107;-67
2023/06/13 11:11:55;;;;;;;4.65;2.92;;;33.10;45.90;;;;;;4959565;28;20035;-69
2023/06/13 11:14:24;;;;;;;6.32;3.33;;;31.90;46.60;;;;;;4949953;28;20069;-67
2023/06/13 11:16:50;;;;;;;5.63;3.00;;;30.80;47.70;;;;;;4957538;29;20035;-67
2023/06/13 11:19:17;;;;;;;5.75;3.38;;;29.20;49.10;;;;;;4957688;29;20507;-68
2023/06/13 11:21:49;;;;;;;5.63;3.50;;;28.30;49.80;;;;;;4958203;29;20046;-67
2023/06/13 11:24:15;;;;;;;7.32;3.20;;;27.70;50.60;;;;;;4957915;28;20101;-68
2023/06/13 11:26:44;;;;;;;8.35;3.08;;;27.50;50.60;;;;;;4957317;29;20019;-66
2023/06/13 11:29:14;;;;;;;7.88;3.30;;;27.10;51.10;;;;;;4939713;29;20038;-67
2023/06/13 11:31:41;;;;;;;5.68;3.60;;;26.90;50.70;;;;;;4957152;29;20030;-67
2023/06/13 11:34:18;;;;;;;6.95;3.03;;;26.60;50.90;;;;;;4939862;29;20550;-67
2023/06/13 11:36:45;;;;;;;6.07;3.63;;;26.50;51.10;;;;;;4957261;29;20055;-67
2023/06/13 11:39:30;;;;;;;7.85;3.25;;;26.60;51.60;;;;;;4957430;29;20031;-68
2023/06/13 11:41:57;;;;;;;6.40;2.80;;;26.70;51.10;;;;;;4957159;29;20135;-67
2023/06/13 11:44:23;;;;;;;4.95;3.50;;;26.70;50.60;;;;;;4965461;28;20395;-68
2023/06/13 11:46:48;;;;;;;;;;;26.70;51.00;;;;;;4976858;28;20030;-67
2023/06/13 11:49:14;;;;;;;5.28;2.78;;;26.60;50.40;;;;;;4976496;28;19913;-68
2023/06/13 11:51:41;;;;;;;5.70;3.42;;;26.40;50.30;;;;;;4976376;28;20027;-69
2023/06/13 11:54:08;;;;;;;4.20;3.10;;;26.20;50.90;;;;;;4975814;28;20023;-67
2023/06/13 11:56:40;;;;;;;5.93;3.22;;;26.10;51.20;;;;;;4955105;28;20050;-66
2023/06/13 11:59:17;;;;;;;5.32;3.50;;;26.10;51.80;;;;;;4953931;29;20034;-69
2023/06/13 12:01:53;;;;;;;5.05;3.10;;;26.10;51.70;;;;;;4956618;29;20026;-67
2023/06/13 12:04:19;;;;;;;;;;;26.30;51.40;;;;;;4951007;29;20027;-68
2023/06/13 12:06:45;;;;;;;6.88;2.80;;;26.20;51.70;;;;;;4948706;29;19945;-68
2023/06/13 12:09:11;;;;;;;;;;;26.20;51.50;;;;;;4950958;29;20059;-68
2023/06/13 12:11:36;;;;;;;7.38;3.45;;;26.00;51.40;;;;;;4953501;29;19961;-67
2023/06/13 12:14:02;;;;;;;;;;;26.20;51.90;;;;;;4956333;28;20047;-68
2023/06/13 12:16:36;;;;;;;6.25;3.08;;;26.20;52.40;;;;;;4939065;29;19911;-67
2023/06/13 12:19:04;;;;;;;6.50;3.80;;;26.30;51.40;;;;;;4957900;29;20019;-68
2023/06/13 12:21:32;;;;;;;3.78;3.30;;;26.30;51.10;;;;;;4955669;29;20034;-67
2023/06/13 12:24:03;;;;;;;5.80;3.00;;;26.10;50.00;;;;;;4949779;29;20383;-69
2023/06/13 12:26:32;;;;;;;6.35;3.90;;;26.00;51.00;;;;;;4955749;28;20131;-66
2023/06/13 12:29:01;;;;;;;6.50;3.08;;;26.20;51.00;;;;;;4952904;29;20098;-69
2023/06/13 12:31:37;;;;;;;4.45;3.20;;;26.30;50.90;;;;;;4936724;29;20122;-67
2023/06/13 12:34:16;;;;;;;4.88;3.00;;;26.20;49.60;;;;;;4936802;29;20035;-67
2023/06/13 12:36:44;;;;;;;6.18;2.95;;;26.20;50.50;;;;;;4936234;29;20031;-67
2023/06/13 12:39:17;;;;;;;6.00;3.30;;;26.40;50.40;;;;;;4937138;29;20039;-67
2023/06/13 12:41:46;;;;;;;6.53;3.05;;;26.50;49.60;;;;;;4922746;29;20031;-67
2023/06/13 12:44:12;;;;;;;7.10;3.03;;;26.50;50.00;;;;;;4960543;28;20022;-65
2023/06/13 12:46:40;;;;;;;;;;;26.40;50.30;;;;;;4975656;28;20031;-65
2023/06/13 12:49:10;;;;;;;6.57;2.90;;;26.30;50.20;;;;;;4975865;28;20052;-66
2023/06/13 12:51:49;;;;;;;5.18;3.38;;;26.20;50.80;;;;;;4975096;28;20120;-66
2023/06/13 12:54:25;;;;;;;7.97;2.97;;;26.30;50.20;;;;;;4974909;28;20066;-65
2023/06/13 12:56:51;;;;;;;5.35;2.95;;;26.40;50.30;;;;;;4974997;28;20034;-66
2023/06/13 12:59:17;;;;;;;5.35;3.17;;;26.40;50.30;;;;;;4975187;28;20019;-66
2023/06/13 13:01:43;;;;;;;;;;;26.50;50.20;;;;;;4975316;28;20038;-66
2023/06/13 13:04:10;;;;;;;5.90;3.22;;;26.60;49.90;;;;;;4974760;28;19906;-66
2023/06/13 13:06:41;;;;;;;5.97;3.20;;;26.70;49.50;;;;;;4974989;28;20031;-66
2023/06/13 13:09:07;;;;;;;6.20;3.10;;;26.60;49.40;;;;;;4974948;28;20082;-66
2023/06/13 13:11:32;;;;;;;;;;;26.40;49.60;;;;;;4975741;28;20031;-66
2023/06/13 13:13:58;;;;;;;6.57;3.40;;;26.40;49.40;;;;;;4951797;28;19918;-65
2023/06/13 13:16:23;;;;;;;;;;;26.50;49.20;;;;;;4956121;29;20042;-65
2023/06/13 13:18:49;;;;;;;5.18;3.10;;;26.50;49.30;;;;;;4938301;29;19925;-66
2023/06/13 13:21:14;;;;;;;;;;;26.50;49.70;;;;;;4938885;29;20127;-65
2023/06/13 13:23:40;;;;;;;6.50;3.25;;;26.60;49.70;;;;;;4955382;29;19906;-66
2023/06/13 13:26:05;;;;;;;;;;;26.80;49.00;;;;;;4956096;29;20061;-65
2023/06/13 13:28:31;;;;;;;6.43;3.17;;;26.70;49.60;;;;;;4955199;29;19906;-66
2023/06/13 13:30:56;;;;;;;6.20;3.03;;;26.70;49.90;;;;;;4937834;29;20031;-67
2023/06/13 13:33:24;;;;;;;7.40;3.40;;;26.70;49.90;;;;;;4955410;29;20046;-66
2023/06/13 13:35:51;;;;;;;7.85;4.05;;;26.80;50.20;;;;;;4955600;29;20500;-67
2023/06/13 13:38:16;;;;;;;8.70;3.40;;;27.00;50.40;;;;;;4937530;29;20158;-67
2023/06/13 13:40:42;;;;;;;;;;;27.00;49.80;;;;;;4955632;29;20059;-67
2023/06/13 13:43:07;;;;;;;6.65;3.72;;;27.00;49.70;;;;;;4955316;29;19906;-67
2023/06/13 13:45:33;;;;;;;;;;;27.00;49.40;;;;;;4973050;28;20034;-67
2023/06/13 13:47:58;;;;;;;7.03;3.50;;;27.00;49.70;;;;;;4974720;28;19953;-66
2023/06/13 13:50:24;;;;;;;5.65;3.40;;;27.00;49.70;;;;;;4974578;28;20067;-67
2023/06/13 13:52:49;;;;;;;6.40;3.53;;;26.90;49.80;;;;;;4974332;28;20089;-68
2023/06/13 13:55:16;;;;;;;8.70;3.13;;;26.90;49.80;;;;;;4974348;28;20055;-67
2023/06/13 13:57:42;;;;;;;10.13;3.72;;;26.90;48.60;;;;;;4974436;28;20074;-66
2023/06/13 14:00:08;;;;;;;7.72;4.03;;;27.00;49.30;;;;;;4973904;28;20030;-66
2023/06/13 14:02:34;;;;;;;5.95;3.13;;;27.30;49.70;;;;;;4974513;28;20027;-66
2023/06/13 14:04:59;;;;;;;5.43;3.90;;;27.20;49.10;;;;;;4974128;28;20506;-66
2023/06/13 14:07:25;;;;;;;6.13;3.30;;;27.00;48.70;;;;;;4974649;28;20082;-66
2023/06/13 14:09:51;;;;;;;4.78;3.40;;;27.00;48.60;;;;;;4957065;28;20057;-66
2023/06/13 14:12:16;;;;;;;6.97;4.65;;;27.00;48.70;;;;;;4957031;28;20038;-66
2023/06/13 14:14:42;;;;;;;5.90;3.28;;;27.20;48.20;;;;;;4962544;28;20537;-67
2023/06/13 14:17:07;;;;;;;5.45;3.33;;;27.10;48.00;;;;;;4953041;29;20035;-67
2023/06/13 14:19:34;;;;;;;6.60;3.47;;;27.10;48.70;;;;;;4954679;29;20035;-66
2023/06/13 14:22:01;;;;;;;10.93;6.57;;;27.10;48.80;;;;;;4937407;29;20027;-66
2023/06/13 14:24:27;;;;;;;6.10;3.58;;;27.40;49.20;;;;;;4937486;29;20024;-67
2023/06/13 14:26:53;;;;;;;10.02;3.95;;;27.50;48.60;;;;;;4954741;29;20042;-65
2023/06/13 14:29:18;;;;;;;5.95;3.30;;;27.50;47.40;;;;;;4937199;29;20476;-65
2023/06/13 14:31:44;;;;;;;5.57;3.30;;;27.40;47.90;;;;;;4954406;29;20027;-65
2023/06/13 14:34:09;;;;;;;5.78;3.70;;;27.30;48.10;;;;;;4937153;29;20055;-65
2023/06/13 14:36:35;;;;;;;10.10;3.67;;;27.40;48.70;;;;;;4954507;29;20031;-65
2023/06/13 14:39:05;;;;;;;10.32;4.13;;;27.40;48.50;;;;;;4930772;29;20054;-66
2023/06/13 14:41:30;;;;;;;8.98;3.83;;;27.60;48.40;;;;;;4942113;29;20110;-67
2023/06/13 14:43:56;;;;;;;7.13;3.70;;;27.50;48.20;;;;;;4951649;28;20062;-65
2023/06/13 14:46:21;;;;;;;7.95;4.15;;;27.60;49.00;;;;;;4955646;29;20110;-67
2023/06/13 14:48:47;;;;;;;10.40;4.25;;;27.60;49.20;;;;;;4955663;28;20028;-67
2023/06/13 14:51:13;;;;;;;8.07;3.70;;;27.70;49.60;;;;;;4958535;29;20039;-65
2023/06/13 14:53:38;;;;;;;6.20;3.85;;;27.70;49.70;;;;;;4958461;28;20054;-65
2023/06/13 14:56:04;;;;;;;7.45;3.35;;;27.70;49.50;;;;;;4958360;29;20504;-64
2023/06/13 14:58:30;;;;;;;5.20;3.28;;;27.70;49.40;;;;;;4958128;29;20102;-64
2023/06/13 15:00:56;;;;;;;5.80;3.80;;;27.50;49.20;;;;;;4957736;29;20036;-66
2023/06/13 15:03:21;;;;;;;7.05;3.90;;;27.40;49.30;;;;;;4955720;29;20102;-66
2023/06/13 15:05:47;;;;;;;8.68;3.85;;;27.40;49.30;;;;;;4949414;29;20030;-66
2023/06/13 15:08:13;;;;;;;4.22;3.10;;;27.40;49.60;;;;;;4952208;29;20040;-66
2023/06/13 15:10:38;;;;;;;8.40;3.50;;;27.30;49.40;;;;;;4948128;29;20067;-67
2023/06/13 15:13:04;;;;;;;4.03;3.40;;;27.40;50.00;;;;;;4947617;29;20035;-69
2023/06/13 15:15:30;;;;;;;7.22;3.55;;;27.20;50.00;;;;;;4967249;28;20046;-65
2023/06/13 15:17:55;;;;;;;5.65;3.20;;;27.20;49.60;;;;;;4940378;29;20448;-66
2023/06/13 15:20:21;;;;;;;6.10;3.42;;;27.10;50.00;;;;;;4924651;29;20058;-65
2023/06/13 15:22:46;;;;;;;11.07;3.90;;;27.20;48.70;;;;;;4939957;29;20078;-67
2023/06/13 15:25:12;;;;;;;10.68;3.53;;;27.10;48.70;;;;;;4958164;28;20042;-64
2023/06/13 15:27:37;;;;;;;6.28;3.70;;;27.10;48.50;;;;;;4941448;29;20025;-67
2023/06/13 15:30:04;;;;;;;5.57;3.70;;;27.20;48.80;;;;;;4933346;29;20035;-66
2023/06/13 15:32:29;;;;;;;9.45;3.65;;;27.20;48.70;;;;;;4951137;29;20027;-65
2023/06/13 15:34:55;;;;;;;12.15;3.88;;;27.30;49.00;;;;;;4957407;29;20469;-66
2023/06/13 15:37:22;;;;;;;11.07;3.60;;;27.30;49.40;;;;;;4957328;29;20497;-67
2023/06/13 15:39:48;;;;;;;6.13;3.40;;;27.30;49.10;;;;;;4945606;29;20480;-66
2023/06/13 15:42:13;;;;;;;7.43;3.70;;;27.30;49.30;;;;;;4931515;29;20066;-66
2023/06/13 15:44:39;;;;;;;7.72;4.00;;;27.30;50.10;;;;;;4956950;28;20026;-65
2023/06/13 15:47:05;;;;;;;6.35;3.55;;;27.30;49.80;;;;;;4947173;29;20046;-65
2023/06/13 15:49:31;;;;;;;5.97;3.60;;;27.30;49.70;;;;;;4950097;29;20029;-67
2023/06/13 15:51:56;;;;;;;4.57;3.30;;;27.30;48.80;;;;;;4946327;29;20023;-66
2023/06/13 15:54:22;;;;;;;7.15;3.83;;;27.10;49.10;;;;;;4951575;29;20523;-66
2023/06/13 15:56:47;;;;;;;5.53;3.47;;;27.10;49.80;;;;;;4953736;29;20054;-67
2023/06/13 15:59:13;;;;;;;6.25;3.67;;;27.10;49.20;;;;;;4948336;29;20032;-67
2023/06/13 16:01:43;;;;;;;5.75;3.55;;;27.00;48.90;;;;;;4935030;29;20122;-68
2023/06/13 16:04:10;;;;;;;4.57;4.03;;;27.00;48.40;;;;;;4936943;29;20479;-67
2023/06/13 16:06:36;;;;;;;7.22;3.80;;;26.90;49.40;;;;;;4935070;29;20118;-68
2023/06/13 16:09:01;;;;;;;9.57;3.47;;;26.90;50.40;;;;;;4953562;29;20110;-66
2023/06/13 16:11:27;;;;;;;5.47;3.60;;;26.90;48.90;;;;;;4934515;29;20032;-66
2023/06/13 16:13:54;;;;;;;;;;;26.80;48.60;;;;;;4949426;29;20039;-66
2023/06/13 16:16:20;;;;;;;5.13;3.80;;;26.80;48.60;;;;;;4938616;29;20000;-65
2023/06/13 16:18:45;;;;;;;;;;;26.70;49.30;;;;;;4957748;29;20034;-66
2023/06/13 16:21:11;;;;;;;6.32;3.53;;;26.70;49.50;;;;;;4956772;29;20341;-66
2023/06/13 16:23:36;;;;;;;;;;;26.70;49.80;;;;;;4956850;29;20493;-65
2023/06/13 16:26:04;;;;;;;6.78;3.35;;;26.70;49.20;;;;;;4939112;29;19910;-66
2023/06/13 16:28:29;;;;;;;7.45;3.65;;;26.80;49.30;;;;;;4949937;29;20047;-67
2023/06/13 16:30:55;;;;;;;;;;;26.80;48.90;;;;;;4947618;29;20027;-66
2023/06/13 16:33:20;;;;;;;5.85;4.00;;;26.80;49.40;;;;;;4955671;28;19918;-65
2023/06/13 16:35:46;;;;;;;4.45;3.22;;;26.80;49.80;;;;;;4956421;29;20031;-67
2023/06/13 16:38:13;;;;;;;;;;;26.80;49.80;;;;;;4946195;29;20042;-67
2023/06/13 16:40:39;;;;;;;8.88;4.30;;;26.70;49.60;;;;;;4938239;29;20280;-67
2023/06/13 16:43:04;;;;;;;;;;;26.70;48.80;;;;;;4945413;29;20027;-67
2023/06/13 16:45:31;;;;;;;5.80;3.60;;;26.50;48.90;;;;;;4942474;28;19978;-67
2023/06/13 16:47:57;;;;;;;4.72;3.72;;;26.50;48.80;;;;;;4947453;29;20081;-67
2023/06/13 16:50:22;;;;;;;;;;;26.50;48.80;;;;;;4960644;29;20074;-67
2023/06/13 16:52:50;;;;;;;6.72;3.83;;;26.50;48.80;;;;;;4961790;29;19918;-66